Bedrock, Colorado
Current Conditions -  °F | °C
As of 7:55 AM on Thursday 30 Oct 2014 (Local Time) from KAIB Reporting Station
Clear Clear  
Wind Chill: 27°   Ceiling: Unl
Heat Index: 32°   Visibility: 10mi
Dew Point: 16°   Wind: 5mph
Humidity: 51%   Direction: 120°ESE
Pressure: 30.41"   Gusts: NA
Location:  38.31°N, 108.89°W
Report Text: KAIB 301355Z AUTO 12004KT 10SM CLR 00/M09 A3041 RMK AO2
Loading
Personal Weather Stations






























Interactive Weather Map
Tropical Storm Tracking
New forecast layout! Learn more

10-Day Weather Forecast

Advertisements
Track Severe Weather on mobile